Airfield :







YOU CAN JOIN US ON...

 
LOGIN :

Register | Disclaimer

   EN    FR    IT 

 









Legend :    VFR   Marginal VFR   IFR   Intensive IFR   Very Intensive IFR
Visi :
Ceiling :
>= 8 km
>= 3000ft
5 to 8 km
1000 to 3000 ft
1500m to 5 km
500 to 1000 ft
800 to 1500m
200 to 500 ft
< 800m
< 200 ft
Symbols :   Thunderstorms  Fog  Heavy snow  Heavy precipitations  Wind > 20 kt







- Airport Elevation : 148 ft


KLWM - Lawrence Municipal

CURRENT METAR :
  • 181554Z VRB03KT 10SM OVC060 08/M01 A3024 RMK AO2 RAE48 SLP242 P0000 T00831006

EXPIRED METARs :
  • 181454Z VRB05KT 10SM -RA OVC060 08/M02 A3024 RMK AO2 RAB24 SLP242 P0000 60000 T00831022 58011
  • 181354Z 12004KT 10SM OVC070 08/00 A3026 RMK AO2 SLP247 T00780000

TAF N/A
KZBW FIR / North America



MET'MAP, your aeronautical weather chart ! - Copyright ORBIFLY December 2007 - Disclaimer

ORBIFLY MET'MAP TEAM :

Programming & Development : Alexandra Zaïnal
Concept & Development : Baudouin d'Aumeries
Co-Development & Prog : Marc-Olivier Méhu
Technical & hardware support : Manuel Goepfert

Contact : metmap@orbifly.com




SOURCES & CREDITS :

   NOAA